createdAt,value
2022-08-28T00:01:29.250Z,93.60
2022-08-28T00:04:18.240Z,93.70
2022-08-28T00:07:08.105Z,93.70
2022-08-28T00:09:56.533Z,93.80
2022-08-28T00:12:45.282Z,93.70
2022-08-28T00:15:36.413Z,93.80
2022-08-28T00:18:25.621Z,93.80
2022-08-28T00:21:14.503Z,93.90
2022-08-28T00:24:04.987Z,93.90
2022-08-28T00:27:10.796Z,93.90
2022-08-28T00:29:59.331Z,93.90
2022-08-28T00:32:47.795Z,93.90
2022-08-28T00:35:36.268Z,93.90
2022-08-28T00:38:26.148Z,94.00
2022-08-28T00:41:15.987Z,94.00
2022-08-28T00:44:11.753Z,94.00
2022-08-28T00:47:00.276Z,94.10
2022-08-28T00:49:50.984Z,94.00
2022-08-28T00:52:38.492Z,93.90
2022-08-28T00:55:28.286Z,93.90
2022-08-28T00:58:18.214Z,93.80
2022-08-28T01:01:06.984Z,93.90
2022-08-28T01:03:55.459Z,93.80
2022-08-28T01:06:44.071Z,93.70
2022-08-28T01:09:32.940Z,93.80
2022-08-28T01:12:26.563Z,93.70
2022-08-28T01:15:18.313Z,93.80
2022-08-28T01:18:09.503Z,93.80
2022-08-28T01:21:02.403Z,93.90
2022-08-28T01:23:54.320Z,93.80
2022-08-28T01:26:42.951Z,93.90
2022-08-28T01:29:31.527Z,93.90
2022-08-28T01:32:33.607Z,93.90
2022-08-28T01:35:23.699Z,94.10
2022-08-28T01:38:12.357Z,94.00
2022-08-28T01:41:07.609Z,94.40
2022-08-28T01:43:56.137Z,94.00
2022-08-28T01:46:44.734Z,94.10
2022-08-28T01:49:33.291Z,94.10
2022-08-28T01:52:26.345Z,94.10
2022-08-28T01:55:15.076Z,94.10
2022-08-28T01:58:07.662Z,94.20
2022-08-28T02:00:56.133Z,94.20
2022-08-28T02:03:44.620Z,94.10
2022-08-28T02:06:33.843Z,94.10
2022-08-28T02:09:22.272Z,94.10
2022-08-28T02:12:10.771Z,94.10
2022-08-28T02:15:01.053Z,94.10
2022-08-28T02:17:49.625Z,94.10
2022-08-28T02:20:38.132Z,94.10
2022-08-28T02:23:26.541Z,94.20
2022-08-28T02:26:15.368Z,94.10
2022-08-28T02:29:03.812Z,94.20
2022-08-28T02:31:53.664Z,94.30
2022-08-28T02:34:43.594Z,94.40
2022-08-28T02:37:32.030Z,94.40
2022-08-28T02:40:22.739Z,94.40
2022-08-28T02:43:11.377Z,94.50
2022-08-28T02:45:59.968Z,94.50
2022-08-28T02:48:50.420Z,94.50
2022-08-28T02:51:38.922Z,94.60
2022-08-28T02:54:27.393Z,94.60
2022-08-28T02:57:16.088Z,94.60
2022-08-28T03:00:05.851Z,94.60
2022-08-28T03:02:54.418Z,94.60
2022-08-28T03:05:44.765Z,94.60
2022-08-28T03:08:33.441Z,94.70
2022-08-28T03:11:22.882Z,94.60
2022-08-28T03:14:11.378Z,94.60
2022-08-28T03:16:59.928Z,94.70
2022-08-28T03:19:48.948Z,94.70
2022-08-28T03:22:56.195Z,94.70
2022-08-28T03:25:44.979Z,94.80
2022-08-28T03:28:36.317Z,94.80
2022-08-28T03:31:26.843Z,94.80
2022-08-28T03:34:15.280Z,94.80
2022-08-28T03:37:03.734Z,94.80
2022-08-28T03:39:53.594Z,94.90
2022-08-28T03:42:42.095Z,95.00
2022-08-28T03:45:35.411Z,94.90
2022-08-28T03:48:24.401Z,95.00
2022-08-28T03:51:14.542Z,95.10
2022-08-28T03:54:04.196Z,95.20
2022-08-28T03:56:53.956Z,95.20
2022-08-28T03:59:42.409Z,95.20
2022-08-28T04:02:31.333Z,95.20
2022-08-28T04:05:19.900Z,95.20
2022-08-28T04:08:08.900Z,95.30
2022-08-28T04:10:57.484Z,95.50
2022-08-28T04:13:47.298Z,95.60
2022-08-28T04:16:36.250Z,95.80
2022-08-28T04:19:24.808Z,95.60
2022-08-28T04:22:13.322Z,95.60
2022-08-28T04:25:02.172Z,95.60
2022-08-28T04:27:50.857Z,95.70
2022-08-28T04:30:41.678Z,95.80
2022-08-28T04:33:31.500Z,95.90
2022-08-28T04:36:19.999Z,95.80
2022-08-28T04:39:10.905Z,95.80
2022-08-28T04:41:59.312Z,95.80
2022-08-28T04:44:47.817Z,95.80
2022-08-28T04:47:38.712Z,95.70
2022-08-28T04:50:27.240Z,95.70
2022-08-28T04:53:17.037Z,95.60
2022-08-28T04:56:06.839Z,95.70
2022-08-28T04:58:55.350Z,95.70
2022-08-28T05:01:44.033Z,95.70
2022-08-28T05:04:33.918Z,95.70
2022-08-28T05:07:22.426Z,95.80
2022-08-28T05:10:11.174Z,95.80
2022-08-28T05:12:59.574Z,95.80
2022-08-28T05:15:49.660Z,96.00
2022-08-28T05:18:38.358Z,95.70
2022-08-28T05:21:28.748Z,95.70
2022-08-28T05:24:17.277Z,95.70
2022-08-28T05:27:06.304Z,95.70
2022-08-28T05:29:57.374Z,95.80
2022-08-28T05:32:49.571Z,95.80
2022-08-28T05:35:39.274Z,95.90
2022-08-28T05:38:29.499Z,95.90
2022-08-28T05:41:20.598Z,96.10
2022-08-28T05:44:10.477Z,96.10
2022-08-28T05:46:58.986Z,96.10
2022-08-28T05:49:47.435Z,96.00
2022-08-28T05:52:35.982Z,96.00
2022-08-28T05:55:25.831Z,95.90
2022-08-28T05:58:28.223Z,96.00
2022-08-28T06:01:19.442Z,96.00
2022-08-28T06:04:10.140Z,96.00
2022-08-28T06:06:58.870Z,96.10
2022-08-28T06:09:47.383Z,96.00
2022-08-28T06:12:37.305Z,96.00
2022-08-28T06:15:26.873Z,96.10
2022-08-28T06:18:16.028Z,96.10
2022-08-28T06:21:04.622Z,96.10
2022-08-28T06:23:53.113Z,96.10
2022-08-28T06:26:41.653Z,96.10
2022-08-28T06:29:31.551Z,96.10
2022-08-28T06:32:20.190Z,96.20
2022-08-28T06:35:09.154Z,96.20
2022-08-28T06:37:59.286Z,96.30
2022-08-28T06:40:49.060Z,96.20
2022-08-28T06:43:37.660Z,96.20
2022-08-28T06:46:30.245Z,96.20
2022-08-28T06:49:18.862Z,96.20
2022-08-28T06:52:07.409Z,96.10
2022-08-28T06:54:56.113Z,96.00
2022-08-28T06:57:44.534Z,96.00
2022-08-28T07:00:33.165Z,95.80
2022-08-28T07:03:22.949Z,95.80
2022-08-28T07:06:11.954Z,95.60
2022-08-28T07:09:00.387Z,95.60
2022-08-28T07:11:48.957Z,95.60
2022-08-28T07:14:38.046Z,95.50
2022-08-28T07:17:26.490Z,95.50
2022-08-28T07:20:16.567Z,95.50
2022-08-28T07:23:05.287Z,95.40
2022-08-28T07:25:54.054Z,95.50
2022-08-28T07:28:42.651Z,95.70
2022-08-28T07:31:33.943Z,95.90
2022-08-28T07:34:27.252Z,95.70
2022-08-28T07:37:17.808Z,95.80
2022-08-28T07:40:08.537Z,95.60
2022-08-28T07:43:17.285Z,94.80
2022-08-28T07:46:07.951Z,94.60
2022-08-28T07:48:58.691Z,94.00
2022-08-28T07:51:47.151Z,93.50
2022-08-28T07:54:37.269Z,93.40
2022-08-28T07:57:25.729Z,92.80
2022-08-28T08:00:15.880Z,92.70
2022-08-28T08:03:04.995Z,92.40
2022-08-28T08:05:53.978Z,92.30
2022-08-28T08:08:42.813Z,91.50
2022-08-28T08:11:32.808Z,91.50
2022-08-28T08:14:21.751Z,90.40
2022-08-28T08:17:10.347Z,90.90
2022-08-28T08:19:58.818Z,90.60
2022-08-28T08:22:47.269Z,90.20
2022-08-28T08:25:35.867Z,90.10
2022-08-28T08:28:25.677Z,90.10
2022-08-28T08:31:15.750Z,90.10
2022-08-28T08:34:05.640Z,90.40
2022-08-28T08:36:54.244Z,90.50
2022-08-28T08:39:43.565Z,90.70
2022-08-28T08:42:33.050Z,90.90
2022-08-28T08:45:26.420Z,90.70
2022-08-28T08:48:20.867Z,91.10
2022-08-28T08:51:28.085Z,90.20
2022-08-28T08:54:19.094Z,88.80
2022-08-28T08:57:07.521Z,89.80
2022-08-28T08:59:56.065Z,90.30
2022-08-28T09:02:50.217Z,90.00
2022-08-28T09:05:45.372Z,90.10
2022-08-28T09:08:48.856Z,90.10
2022-08-28T09:11:45.405Z,89.30
2022-08-28T09:14:44.999Z,88.40
2022-08-28T09:17:37.380Z,89.00
2022-08-28T09:20:32.518Z,88.70
2022-08-28T09:23:23.120Z,85.50
2022-08-28T09:26:13.889Z,84.50
2022-08-28T09:29:06.210Z,83.80
2022-08-28T09:31:54.662Z,80.90
2022-08-28T09:34:43.140Z,78.60
2022-08-28T09:37:33.109Z,80.00
2022-08-28T09:40:24.573Z,79.70
2022-08-28T09:43:28.708Z,79.20
2022-08-28T09:46:21.593Z,79.30
2022-08-28T09:49:11.882Z,80.30
2022-08-28T09:52:01.635Z,80.90
2022-08-28T09:54:51.554Z,79.00
2022-08-28T09:57:46.425Z,80.00
2022-08-28T10:00:38.109Z,78.50
2022-08-28T10:03:28.961Z,78.70
2022-08-28T10:06:22.806Z,77.70
2022-08-28T10:09:17.603Z,74.90
2022-08-28T10:12:14.040Z,71.70
2022-08-28T10:15:11.074Z,70.50
2022-08-28T10:18:19.402Z,69.20
2022-08-28T10:21:18.999Z,67.40
2022-08-28T10:24:26.707Z,68.50
2022-08-28T10:27:32.217Z,67.00
2022-08-28T10:30:22.929Z,66.20
2022-08-28T10:33:25.540Z,64.70
2022-08-28T10:36:23.182Z,65.00
2022-08-28T10:39:31.332Z,66.70
2022-08-28T10:42:30.228Z,63.60
2022-08-28T10:45:25.829Z,65.10
2022-08-28T10:48:19.693Z,63.60
2022-08-28T10:51:12.881Z,61.00
2022-08-28T10:54:03.524Z,61.40
2022-08-28T10:56:56.624Z,58.80
2022-08-28T10:59:49.569Z,59.70
2022-08-28T11:02:38.333Z,59.70
2022-08-28T11:05:29.545Z,60.60
2022-08-28T11:08:26.051Z,60.20
2022-08-28T11:11:15.349Z,60.00
2022-08-28T11:14:03.728Z,60.70
2022-08-28T11:16:54.463Z,61.40
2022-08-28T11:19:58.834Z,61.40
2022-08-28T11:22:49.752Z,60.80
2022-08-28T11:25:45.286Z,61.90
2022-08-28T11:28:47.243Z,59.80
2022-08-28T11:31:41.019Z,59.20
2022-08-28T11:34:59.205Z,59.20
2022-08-28T11:37:49.667Z,59.90
2022-08-28T11:40:57.931Z,59.60
2022-08-28T11:43:46.783Z,58.00
2022-08-28T11:46:38.086Z,59.30
2022-08-28T11:49:44.389Z,58.40
2022-08-28T11:52:45.895Z,58.10
2022-08-28T11:55:51.912Z,58.30
2022-08-28T11:58:45.362Z,58.20
2022-08-28T12:01:36.798Z,56.70
2022-08-28T12:04:25.339Z,57.60
2022-08-28T12:07:21.954Z,57.20
2022-08-28T12:10:52.351Z,57.30
2022-08-28T12:13:51.029Z,57.20
2022-08-28T12:17:20.255Z,55.60
2022-08-28T12:20:10.821Z,54.70
2022-08-28T12:23:00.786Z,55.40
2022-08-28T12:25:49.224Z,55.40
2022-08-28T12:28:47.008Z,56.00
2022-08-28T12:32:08.799Z,56.30
2022-08-28T12:35:17.606Z,57.00
2022-08-28T12:38:07.409Z,55.60
2022-08-28T12:40:55.878Z,56.40
2022-08-28T12:43:48.326Z,56.60
2022-08-28T12:46:38.693Z,56.50
2022-08-28T12:49:30.676Z,56.20
2022-08-28T12:52:21.092Z,54.70
2022-08-28T12:55:10.077Z,54.80
2022-08-28T12:57:58.594Z,54.50
2022-08-28T13:00:54.307Z,54.20
2022-08-28T13:03:45.933Z,54.00
2022-08-28T13:06:36.371Z,54.20
2022-08-28T13:09:26.674Z,54.40
2022-08-28T13:12:20.993Z,54.00
2022-08-28T13:15:11.462Z,53.90
2022-08-28T13:18:01.387Z,53.90
2022-08-28T13:20:51.178Z,53.10
2022-08-28T13:23:39.775Z,53.70
2022-08-28T13:26:33.924Z,53.70
2022-08-28T13:29:24.787Z,51.40
2022-08-28T13:32:17.470Z,52.30
2022-08-28T13:35:42.145Z,52.80
2022-08-28T13:38:30.639Z,53.10
2022-08-28T13:41:19.393Z,52.60
2022-08-28T13:44:08.541Z,52.60
2022-08-28T13:46:57.263Z,52.00
2022-08-28T13:49:45.746Z,52.20
2022-08-28T13:52:35.934Z,52.30
2022-08-28T13:55:24.891Z,52.20
2022-08-28T13:58:15.781Z,52.40
2022-08-28T14:01:05.149Z,51.70
2022-08-28T14:03:52.719Z,51.30
2022-08-28T14:06:44.328Z,51.10
2022-08-28T14:09:34.194Z,51.30
2022-08-28T14:12:22.708Z,51.10
2022-08-28T14:15:20.146Z,51.20
2022-08-28T14:18:08.683Z,51.10
2022-08-28T14:20:57.495Z,50.90
2022-08-28T14:23:46.549Z,50.60
2022-08-28T14:26:36.479Z,50.70
2022-08-28T14:29:24.923Z,50.60
2022-08-28T14:32:13.463Z,50.50
2022-08-28T14:35:01.867Z,50.10
2022-08-28T14:37:50.427Z,49.90
2022-08-28T14:40:39.317Z,49.90
2022-08-28T14:43:30.148Z,49.70
2022-08-28T14:46:19.431Z,49.10
2022-08-28T14:49:09.629Z,49.40
2022-08-28T14:51:58.220Z,48.90
2022-08-28T14:54:46.744Z,47.50
2022-08-28T14:57:37.007Z,47.60
2022-08-28T15:00:26.937Z,47.70
2022-08-28T15:03:15.789Z,47.70
2022-08-28T15:06:06.574Z,48.00
2022-08-28T15:08:55.098Z,48.40
2022-08-28T15:11:43.955Z,48.60
2022-08-28T15:14:32.439Z,49.00
2022-08-28T15:17:23.189Z,49.00
2022-08-28T15:20:22.685Z,49.30
2022-08-28T15:23:11.392Z,49.50
2022-08-28T15:25:59.819Z,48.70
2022-08-28T15:28:48.280Z,49.00
2022-08-28T15:31:39.065Z,49.20
2022-08-28T15:34:29.292Z,49.00
2022-08-28T15:37:18.519Z,49.10
2022-08-28T15:40:26.660Z,48.70
2022-08-28T15:43:15.555Z,48.90
2022-08-28T15:46:13.011Z,49.20
2022-08-28T15:49:01.685Z,49.00
2022-08-28T15:51:52.081Z,48.90
2022-08-28T15:54:40.566Z,48.90
2022-08-28T15:57:28.983Z,49.10
2022-08-28T16:00:18.120Z,48.50
2022-08-28T16:03:06.638Z,48.80
2022-08-28T16:05:55.144Z,48.80
2022-08-28T16:08:45.176Z,48.70
2022-08-28T16:11:34.351Z,48.60
2022-08-28T16:14:28.040Z,48.60
2022-08-28T16:17:16.487Z,48.50
2022-08-28T16:20:12.957Z,48.60
2022-08-28T16:23:02.062Z,48.50
2022-08-28T16:25:51.974Z,48.60
2022-08-28T16:28:40.477Z,48.40
2022-08-28T16:31:30.787Z,48.70
2022-08-28T16:34:19.647Z,48.40
2022-08-28T16:37:08.779Z,48.50
2022-08-28T16:39:57.479Z,48.40
2022-08-28T16:42:51.682Z,48.30
2022-08-28T16:45:43.504Z,48.40
2022-08-28T16:48:31.979Z,48.50
2022-08-28T16:51:20.563Z,48.40
2022-08-28T16:54:09.348Z,48.70
2022-08-28T16:56:57.978Z,48.90
2022-08-28T16:59:48.278Z,48.80
2022-08-28T17:02:41.786Z,49.10
2022-08-28T17:05:30.495Z,49.10
2022-08-28T17:08:19.010Z,49.20
2022-08-28T17:11:07.685Z,49.00
2022-08-28T17:13:56.496Z,49.50
2022-08-28T17:16:46.654Z,49.00
2022-08-28T17:19:35.159Z,48.90
2022-08-28T17:22:32.003Z,49.10
2022-08-28T17:25:20.503Z,49.10
2022-08-28T17:28:08.954Z,49.30
2022-08-28T17:30:57.502Z,49.40
2022-08-28T17:33:47.374Z,49.30
2022-08-28T17:36:36.892Z,49.10
2022-08-28T17:39:25.838Z,49.20
2022-08-28T17:42:14.297Z,49.10
2022-08-28T17:45:02.874Z,49.10
2022-08-28T17:47:53.502Z,49.00
2022-08-28T17:50:43.383Z,49.00
2022-08-28T17:53:31.806Z,49.10
2022-08-28T17:56:20.327Z,49.10
2022-08-28T17:59:21.905Z,49.20
2022-08-28T18:02:10.747Z,49.20
2022-08-28T18:04:59.423Z,49.20
2022-08-28T18:07:52.332Z,49.20
2022-08-28T18:10:41.077Z,49.10
2022-08-28T18:13:30.179Z,49.40
2022-08-28T18:16:18.970Z,49.20
2022-08-28T18:19:09.499Z,49.40
2022-08-28T18:21:57.989Z,49.50
2022-08-28T18:24:52.410Z,49.60
2022-08-28T18:27:40.995Z,50.00
2022-08-28T18:30:29.618Z,50.00
2022-08-28T18:33:22.146Z,50.20
2022-08-28T18:36:11.923Z,50.40
2022-08-28T18:39:00.354Z,50.50
2022-08-28T18:41:51.252Z,50.70
2022-08-28T18:44:39.736Z,51.00
2022-08-28T18:47:28.398Z,51.10
2022-08-28T18:50:16.916Z,51.20
2022-08-28T18:53:06.191Z,51.50
2022-08-28T18:55:55.574Z,51.80
2022-08-28T18:58:45.784Z,51.90
2022-08-28T19:01:34.462Z,52.20
2022-08-28T19:04:22.996Z,52.40
2022-08-28T19:07:11.507Z,52.70
2022-08-28T19:09:59.950Z,52.90
2022-08-28T19:12:48.551Z,53.00
2022-08-28T19:15:40.494Z,53.20
2022-08-28T19:18:29.918Z,53.50
2022-08-28T19:21:19.652Z,53.60
2022-08-28T19:24:08.349Z,53.90
2022-08-28T19:26:56.793Z,54.00
2022-08-28T19:29:45.240Z,54.20
2022-08-28T19:32:35.045Z,54.30
2022-08-28T19:35:24.818Z,54.50
2022-08-28T19:38:13.594Z,54.70
2022-08-28T19:41:02.614Z,54.80
2022-08-28T19:43:51.703Z,54.70
2022-08-28T19:46:40.504Z,54.60
2022-08-28T19:49:30.396Z,54.70
2022-08-28T19:52:19.165Z,54.80
2022-08-28T19:55:09.189Z,54.70
2022-08-28T19:57:57.638Z,55.00
2022-08-28T20:00:46.096Z,54.80
2022-08-28T20:03:36.348Z,54.90
2022-08-28T20:06:26.415Z,55.00
2022-08-28T20:09:14.843Z,55.10
2022-08-28T20:12:03.725Z,55.00
2022-08-28T20:14:52.180Z,55.10
2022-08-28T20:17:43.871Z,55.10
2022-08-28T20:20:38.184Z,55.20
2022-08-28T20:23:28.536Z,55.30
2022-08-28T20:26:17.022Z,55.60
2022-08-28T20:29:05.693Z,55.40
2022-08-28T20:31:54.283Z,55.50
2022-08-28T20:34:44.574Z,55.60
2022-08-28T20:37:34.466Z,55.80
2022-08-28T20:40:34.759Z,55.90
2022-08-28T20:43:23.399Z,55.90
2022-08-28T20:46:12.088Z,55.80
2022-08-28T20:49:00.725Z,55.80
2022-08-28T20:51:56.566Z,55.90
2022-08-28T20:54:46.008Z,55.80
2022-08-28T20:57:37.635Z,55.80
2022-08-28T21:00:26.594Z,55.90
2022-08-28T21:03:15.095Z,55.90
2022-08-28T21:06:03.601Z,55.90
2022-08-28T21:08:53.267Z,55.70
2022-08-28T21:11:42.151Z,55.70
2022-08-28T21:14:32.084Z,55.60
2022-08-28T21:17:20.850Z,55.60
2022-08-28T21:20:20.011Z,55.50
2022-08-28T21:23:08.512Z,55.30
2022-08-28T21:25:57.109Z,55.40
2022-08-28T21:28:45.557Z,55.20
2022-08-28T21:31:35.465Z,55.30
2022-08-28T21:34:24.672Z,55.20
2022-08-28T21:37:13.168Z,55.20
2022-08-28T21:40:02.005Z,55.00
2022-08-28T21:42:50.445Z,55.00
2022-08-28T21:45:38.998Z,55.00
2022-08-28T21:48:28.903Z,54.90
2022-08-28T21:51:18.799Z,55.00
2022-08-28T21:54:07.488Z,54.90
2022-08-28T21:56:58.545Z,54.90
2022-08-28T21:59:47.490Z,55.10
2022-08-28T22:02:36.034Z,54.90
2022-08-28T22:05:28.272Z,54.90
2022-08-28T22:08:17.696Z,55.00
2022-08-28T22:11:06.684Z,55.00
2022-08-28T22:13:55.332Z,54.90
2022-08-28T22:16:44.720Z,55.00
2022-08-28T22:19:33.212Z,55.10
2022-08-28T22:22:40.687Z,55.00
2022-08-28T22:25:29.174Z,55.10
2022-08-28T22:28:17.659Z,55.00
2022-08-28T22:31:06.408Z,55.10
2022-08-28T22:33:55.076Z,55.20
2022-08-28T22:36:43.521Z,55.30
2022-08-28T22:39:33.371Z,55.20
2022-08-28T22:42:22.966Z,55.30
2022-08-28T22:45:11.757Z,55.40
2022-08-28T22:48:00.326Z,55.30
2022-08-28T22:50:49.899Z,55.30
2022-08-28T22:53:38.548Z,55.40
2022-08-28T22:56:28.362Z,55.50
2022-08-28T22:59:16.827Z,55.40
2022-08-28T23:02:05.628Z,55.30
2022-08-28T23:04:54.130Z,55.50
2022-08-28T23:07:42.926Z,55.50
2022-08-28T23:10:55.396Z,55.50
2022-08-28T23:13:41.185Z,55.50
2022-08-28T23:16:29.810Z,55.50
2022-08-28T23:19:19.103Z,55.60
2022-08-28T23:22:07.626Z,55.60
2022-08-28T23:24:56.114Z,55.60
2022-08-28T23:27:44.843Z,55.60
2022-08-28T23:30:34.875Z,56.30
2022-08-28T23:33:24.193Z,55.80
2022-08-28T23:36:13.009Z,55.80
2022-08-28T23:39:01.482Z,55.80
2022-08-28T23:41:49.985Z,55.90
2022-08-28T23:44:38.475Z,56.00
2022-08-28T23:47:28.359Z,56.00
2022-08-28T23:50:18.854Z,56.20
2022-08-28T23:53:07.315Z,56.20
2022-08-28T23:55:56.507Z,56.20
2022-08-28T23:58:48.110Z,56.20
